sensor_id;sensor_type;location;lat;lon;timestamp;temperature;humidity
34768;DHT22;21755;43.608;1.236;2023-03-01T00:01:50;0.70;99.90
34768;DHT22;21755;43.608;1.236;2023-03-01T00:04:16;0.70;99.90
34768;DHT22;21755;43.608;1.236;2023-03-01T00:06:43;0.70;99.90
34768;DHT22;21755;43.608;1.236;2023-03-01T00:09:12;0.70;99.90
34768;DHT22;21755;43.608;1.236;2023-03-01T00:11:38;0.70;99.90
34768;DHT22;21755;43.608;1.236;2023-03-01T00:14:04;0.70;99.90
34768;DHT22;21755;43.608;1.236;2023-03-01T00:16:37;0.70;99.90
34768;DHT22;21755;43.608;1.236;2023-03-01T00:19:12;0.70;99.90
34768;DHT22;21755;43.608;1.236;2023-03-01T00:21:38;0.70;99.90
34768;DHT22;21755;43.608;1.236;2023-03-01T00:24:04;0.70;99.90
34768;DHT22;21755;43.608;1.236;2023-03-01T00:26:30;0.70;99.90
34768;DHT22;21755;43.608;1.236;2023-03-01T00:28:57;0.80;99.90
34768;DHT22;21755;43.608;1.236;2023-03-01T00:31:29;0.90;99.90
34768;DHT22;21755;43.608;1.236;2023-03-01T00:33:58;1.00;99.90
34768;DHT22;21755;43.608;1.236;2023-03-01T00:36:26;1.00;99.90
34768;DHT22;21755;43.608;1.236;2023-03-01T00:38:52;1.00;99.90
34768;DHT22;21755;43.608;1.236;2023-03-01T00:41:19;0.90;99.90
34768;DHT22;21755;43.608;1.236;2023-03-01T00:43:45;0.90;99.90
34768;DHT22;21755;43.608;1.236;2023-03-01T00:46:15;0.90;99.90
34768;DHT22;21755;43.608;1.236;2023-03-01T00:48:41;0.90;99.90
34768;DHT22;21755;43.608;1.236;2023-03-01T00:51:10;0.90;99.90
34768;DHT22;21755;43.608;1.236;2023-03-01T00:53:36;0.90;99.90
34768;DHT22;21755;43.608;1.236;2023-03-01T00:56:03;1.00;99.90
34768;DHT22;21755;43.608;1.236;2023-03-01T00:58:30;1.00;99.90
34768;DHT22;21755;43.608;1.236;2023-03-01T01:00:56;0.90;99.90
34768;DHT22;21755;43.608;1.236;2023-03-01T01:03:22;1.00;99.90
34768;DHT22;21755;43.608;1.236;2023-03-01T01:05:51;1.00;99.90
34768;DHT22;21755;43.608;1.236;2023-03-01T01:08:17;0.90;99.90
34768;DHT22;21755;43.608;1.236;2023-03-01T01:10:44;0.90;99.90
34768;DHT22;21755;43.608;1.236;2023-03-01T01:13:11;0.90;99.90
34768;DHT22;21755;43.608;1.236;2023-03-01T01:15:37;0.90;99.90
34768;DHT22;21755;43.608;1.236;2023-03-01T01:18:03;0.90;99.90
34768;DHT22;21755;43.608;1.236;2023-03-01T01:20:29;0.90;99.90
34768;DHT22;21755;43.608;1.236;2023-03-01T01:22:55;0.90;99.90
34768;DHT22;21755;43.608;1.236;2023-03-01T01:25:21;0.90;99.90
34768;DHT22;21755;43.608;1.236;2023-03-01T01:27:50;0.80;99.90
34768;DHT22;21755;43.608;1.236;2023-03-01T01:30:16;0.80;99.90
34768;DHT22;21755;43.608;1.236;2023-03-01T01:32:42;0.80;99.90
34768;DHT22;21755;43.608;1.236;2023-03-01T01:35:08;0.70;99.90
34768;DHT22;21755;43.608;1.236;2023-03-01T01:37:34;0.70;99.90
34768;DHT22;21755;43.608;1.236;2023-03-01T01:40:01;0.60;99.90
34768;DHT22;21755;43.608;1.236;2023-03-01T01:42:30;0.50;99.90
34768;DHT22;21755;43.608;1.236;2023-03-01T01:45:26;0.50;99.90
34768;DHT22;21755;43.608;1.236;2023-03-01T01:47:53;0.50;99.90
34768;DHT22;21755;43.608;1.236;2023-03-01T01:50:20;0.50;99.90
34768;DHT22;21755;43.608;1.236;2023-03-01T01:52:48;0.50;99.90
34768;DHT22;21755;43.608;1.236;2023-03-01T01:55:19;0.60;99.90
34768;DHT22;21755;43.608;1.236;2023-03-01T01:58:02;0.60;99.90
34768;DHT22;21755;43.608;1.236;2023-03-01T02:00:30;0.60;99.90
34768;DHT22;21755;43.608;1.236;2023-03-01T02:03:02;0.50;99.90
34768;DHT22;21755;43.608;1.236;2023-03-01T02:08:03;0.30;99.90
34768;DHT22;21755;43.608;1.236;2023-03-01T02:10:29;0.30;99.90
34768;DHT22;21755;43.608;1.236;2023-03-01T02:12:59;0.20;99.90
34768;DHT22;21755;43.608;1.236;2023-03-01T02:15:25;0.20;99.90
34768;DHT22;21755;43.608;1.236;2023-03-01T02:17:52;0.10;99.90
34768;DHT22;21755;43.608;1.236;2023-03-01T02:22:51;0.10;99.90
34768;DHT22;21755;43.608;1.236;2023-03-01T02:25:45;0.10;99.90
34768;DHT22;21755;43.608;1.236;2023-03-01T02:30:50;0.00;99.90
34768;DHT22;21755;43.608;1.236;2023-03-01T02:33:36;0.00;99.90
34768;DHT22;21755;43.608;1.236;2023-03-01T02:36:17;0.00;99.90
34768;DHT22;21755;43.608;1.236;2023-03-01T02:38:43;0.00;99.90
34768;DHT22;21755;43.608;1.236;2023-03-01T02:41:13;0.00;99.90
34768;DHT22;21755;43.608;1.236;2023-03-01T02:43:40;0.00;99.90
34768;DHT22;21755;43.608;1.236;2023-03-01T02:46:19;-0.10;99.90
34768;DHT22;21755;43.608;1.236;2023-03-01T02:48:56;-0.10;99.90
34768;DHT22;21755;43.608;1.236;2023-03-01T02:52:43;-0.20;99.90
34768;DHT22;21755;43.608;1.236;2023-03-01T02:57:35;-0.30;99.90
34768;DHT22;21755;43.608;1.236;2023-03-01T03:00:14;-0.30;99.90
34768;DHT22;21755;43.608;1.236;2023-03-01T03:02:49;-0.30;99.90
34768;DHT22;21755;43.608;1.236;2023-03-01T03:05:19;-0.40;99.90
34768;DHT22;21755;43.608;1.236;2023-03-01T03:07:46;-0.50;99.90
34768;DHT22;21755;43.608;1.236;2023-03-01T03:10:21;-0.50;99.90
34768;DHT22;21755;43.608;1.236;2023-03-01T03:12:58;-0.50;99.90
34768;DHT22;21755;43.608;1.236;2023-03-01T03:15:25;-0.50;99.90
34768;DHT22;21755;43.608;1.236;2023-03-01T03:17:53;-0.60;99.90
34768;DHT22;21755;43.608;1.236;2023-03-01T03:20:21;-0.60;99.90
34768;DHT22;21755;43.608;1.236;2023-03-01T03:22:50;-0.70;99.90
34768;DHT22;21755;43.608;1.236;2023-03-01T03:25:17;-0.80;99.90
34768;DHT22;21755;43.608;1.236;2023-03-01T03:27:45;-0.80;99.90
34768;DHT22;21755;43.608;1.236;2023-03-01T03:30:14;-0.80;99.90
34768;DHT22;21755;43.608;1.236;2023-03-01T03:32:41;-0.80;99.90
34768;DHT22;21755;43.608;1.236;2023-03-01T03:35:09;-0.80;99.90
34768;DHT22;21755;43.608;1.236;2023-03-01T03:37:37;-0.80;99.90
34768;DHT22;21755;43.608;1.236;2023-03-01T03:40:21;-0.80;99.90
34768;DHT22;21755;43.608;1.236;2023-03-01T03:42:47;-0.90;99.90
34768;DHT22;21755;43.608;1.236;2023-03-01T03:45:14;-0.90;99.90
34768;DHT22;21755;43.608;1.236;2023-03-01T03:47:40;-0.90;99.90
34768;DHT22;21755;43.608;1.236;2023-03-01T03:50:07;-0.80;99.90
34768;DHT22;21755;43.608;1.236;2023-03-01T03:52:33;-0.80;99.90
34768;DHT22;21755;43.608;1.236;2023-03-01T03:54:59;-0.80;99.90
34768;DHT22;21755;43.608;1.236;2023-03-01T03:57:25;-0.90;99.90
34768;DHT22;21755;43.608;1.236;2023-03-01T03:59:50;-0.90;99.90
34768;DHT22;21755;43.608;1.236;2023-03-01T04:02:16;-0.90;99.90
34768;DHT22;21755;43.608;1.236;2023-03-01T04:04:50;-0.90;99.90
34768;DHT22;21755;43.608;1.236;2023-03-01T04:07:16;-1.00;99.90
34768;DHT22;21755;43.608;1.236;2023-03-01T04:09:43;-1.00;99.90
34768;DHT22;21755;43.608;1.236;2023-03-01T04:12:10;-1.00;99.90
34768;DHT22;21755;43.608;1.236;2023-03-01T04:14:36;-1.10;99.90
34768;DHT22;21755;43.608;1.236;2023-03-01T04:17:02;-1.10;99.90
34768;DHT22;21755;43.608;1.236;2023-03-01T04:19:31;-1.20;99.90
34768;DHT22;21755;43.608;1.236;2023-03-01T04:22:04;-1.20;99.90
34768;DHT22;21755;43.608;1.236;2023-03-01T04:24:37;-1.20;99.90
34768;DHT22;21755;43.608;1.236;2023-03-01T04:27:03;-1.20;99.90
34768;DHT22;21755;43.608;1.236;2023-03-01T04:29:29;-1.10;99.90
34768;DHT22;21755;43.608;1.236;2023-03-01T04:31:55;-1.20;99.90
34768;DHT22;21755;43.608;1.236;2023-03-01T04:34:21;-1.20;99.90
34768;DHT22;21755;43.608;1.236;2023-03-01T04:36:47;-1.20;99.90
34768;DHT22;21755;43.608;1.236;2023-03-01T04:39:13;-1.20;99.90
34768;DHT22;21755;43.608;1.236;2023-03-01T04:41:39;-1.20;99.90
34768;DHT22;21755;43.608;1.236;2023-03-01T04:44:06;-1.30;99.90
34768;DHT22;21755;43.608;1.236;2023-03-01T04:46:32;-1.30;99.90
34768;DHT22;21755;43.608;1.236;2023-03-01T04:48:58;-1.30;99.90
34768;DHT22;21755;43.608;1.236;2023-03-01T04:51:24;-1.30;99.90
34768;DHT22;21755;43.608;1.236;2023-03-01T04:53:50;-1.30;99.90
34768;DHT22;21755;43.608;1.236;2023-03-01T04:56:16;-1.40;99.90
34768;DHT22;21755;43.608;1.236;2023-03-01T04:58:46;-1.40;99.90
34768;DHT22;21755;43.608;1.236;2023-03-01T05:01:16;-1.40;99.90
34768;DHT22;21755;43.608;1.236;2023-03-01T05:03:44;-1.40;99.90
34768;DHT22;21755;43.608;1.236;2023-03-01T05:06:10;-1.40;99.90
34768;DHT22;21755;43.608;1.236;2023-03-01T05:08:38;-1.40;99.90
34768;DHT22;21755;43.608;1.236;2023-03-01T05:11:05;-1.40;99.90
34768;DHT22;21755;43.608;1.236;2023-03-01T05:13:31;-1.50;99.90
34768;DHT22;21755;43.608;1.236;2023-03-01T05:15:59;-1.40;99.90
34768;DHT22;21755;43.608;1.236;2023-03-01T05:18:27;-1.40;99.90
34768;DHT22;21755;43.608;1.236;2023-03-01T05:20:54;-1.40;99.90
34768;DHT22;21755;43.608;1.236;2023-03-01T05:23:24;-1.50;99.90
34768;DHT22;21755;43.608;1.236;2023-03-01T05:25:50;-1.50;99.90
34768;DHT22;21755;43.608;1.236;2023-03-01T05:28:19;-1.60;99.90
34768;DHT22;21755;43.608;1.236;2023-03-01T05:30:45;-1.70;99.90
34768;DHT22;21755;43.608;1.236;2023-03-01T05:33:12;-1.70;99.90
34768;DHT22;21755;43.608;1.236;2023-03-01T05:35:42;-1.70;99.90
34768;DHT22;21755;43.608;1.236;2023-03-01T05:38:09;-1.70;99.90
34768;DHT22;21755;43.608;1.236;2023-03-01T05:40:39;-1.70;99.90
34768;DHT22;21755;43.608;1.236;2023-03-01T05:43:05;-1.70;99.90
34768;DHT22;21755;43.608;1.236;2023-03-01T05:45:32;-1.80;99.90
34768;DHT22;21755;43.608;1.236;2023-03-01T05:47:58;-1.80;99.90
34768;DHT22;21755;43.608;1.236;2023-03-01T05:50:29;-1.70;99.90
34768;DHT22;21755;43.608;1.236;2023-03-01T05:53:00;-1.70;99.90
34768;DHT22;21755;43.608;1.236;2023-03-01T05:55:27;-1.80;99.90
34768;DHT22;21755;43.608;1.236;2023-03-01T05:57:53;-1.80;99.90
34768;DHT22;21755;43.608;1.236;2023-03-01T06:00:20;-1.80;99.90
34768;DHT22;21755;43.608;1.236;2023-03-01T06:02:48;-1.80;99.90
34768;DHT22;21755;43.608;1.236;2023-03-01T06:05:15;-1.80;99.90
34768;DHT22;21755;43.608;1.236;2023-03-01T06:07:41;-1.80;99.90
34768;DHT22;21755;43.608;1.236;2023-03-01T06:10:08;-1.90;99.90
34768;DHT22;21755;43.608;1.236;2023-03-01T06:12:36;-1.90;99.90
34768;DHT22;21755;43.608;1.236;2023-03-01T06:15:03;-1.90;99.90
34768;DHT22;21755;43.608;1.236;2023-03-01T06:17:31;-2.00;99.90
34768;DHT22;21755;43.608;1.236;2023-03-01T06:19:57;-1.90;99.90
34768;DHT22;21755;43.608;1.236;2023-03-01T06:22:23;-1.90;99.90
34768;DHT22;21755;43.608;1.236;2023-03-01T06:24:49;-2.00;99.90
34768;DHT22;21755;43.608;1.236;2023-03-01T06:27:16;-2.10;99.90
34768;DHT22;21755;43.608;1.236;2023-03-01T06:29:41;-2.10;99.90
34768;DHT22;21755;43.608;1.236;2023-03-01T06:32:08;-2.10;99.90
34768;DHT22;21755;43.608;1.236;2023-03-01T06:34:34;-2.20;99.90
34768;DHT22;21755;43.608;1.236;2023-03-01T06:37:00;-2.20;99.90
34768;DHT22;21755;43.608;1.236;2023-03-01T06:39:28;-2.10;99.90
34768;DHT22;21755;43.608;1.236;2023-03-01T06:41:54;-2.10;99.90
34768;DHT22;21755;43.608;1.236;2023-03-01T06:44:20;-2.00;99.90
34768;DHT22;21755;43.608;1.236;2023-03-01T06:46:46;-2.00;99.90
34768;DHT22;21755;43.608;1.236;2023-03-01T06:49:12;-2.10;99.90
34768;DHT22;21755;43.608;1.236;2023-03-01T06:51:38;-2.10;99.90
34768;DHT22;21755;43.608;1.236;2023-03-01T06:54:04;-2.10;99.90
34768;DHT22;21755;43.608;1.236;2023-03-01T06:56:31;-2.10;99.90
34768;DHT22;21755;43.608;1.236;2023-03-01T06:58:57;-2.00;99.90
34768;DHT22;21755;43.608;1.236;2023-03-01T07:01:23;-2.00;99.90
34768;DHT22;21755;43.608;1.236;2023-03-01T07:03:50;-2.00;99.90
34768;DHT22;21755;43.608;1.236;2023-03-01T07:06:15;-1.90;99.90
34768;DHT22;21755;43.608;1.236;2023-03-01T07:08:43;-1.90;99.90
34768;DHT22;21755;43.608;1.236;2023-03-01T07:11:09;-1.80;99.90
34768;DHT22;21755;43.608;1.236;2023-03-01T07:13:34;-1.80;99.90
34768;DHT22;21755;43.608;1.236;2023-03-01T07:16:00;-1.80;99.90
34768;DHT22;21755;43.608;1.236;2023-03-01T07:18:26;-1.70;99.90
34768;DHT22;21755;43.608;1.236;2023-03-01T07:20:52;-1.70;99.90
34768;DHT22;21755;43.608;1.236;2023-03-01T07:23:18;-1.60;99.90
34768;DHT22;21755;43.608;1.236;2023-03-01T07:25:44;-1.60;99.90
34768;DHT22;21755;43.608;1.236;2023-03-01T07:28:16;-1.50;99.90
34768;DHT22;21755;43.608;1.236;2023-03-01T07:30:42;-1.40;99.90
34768;DHT22;21755;43.608;1.236;2023-03-01T07:33:07;-1.30;99.90
34768;DHT22;21755;43.608;1.236;2023-03-01T07:35:33;-1.30;99.90
34768;DHT22;21755;43.608;1.236;2023-03-01T07:37:59;-1.20;99.90
34768;DHT22;21755;43.608;1.236;2023-03-01T07:40:25;-1.10;99.90
34768;DHT22;21755;43.608;1.236;2023-03-01T07:42:58;-1.00;99.90
34768;DHT22;21755;43.608;1.236;2023-03-01T07:45:25;-0.90;99.90
34768;DHT22;21755;43.608;1.236;2023-03-01T07:47:52;0.60;99.90
34768;DHT22;21755;43.608;1.236;2023-03-01T07:50:18;2.40;99.90
34768;DHT22;21755;43.608;1.236;2023-03-01T07:52:46;1.50;99.90
34768;DHT22;21755;43.608;1.236;2023-03-01T07:55:12;0.90;99.90
34768;DHT22;21755;43.608;1.236;2023-03-01T07:57:38;0.60;99.90
34768;DHT22;21755;43.608;1.236;2023-03-01T08:00:05;0.40;99.90
34768;DHT22;21755;43.608;1.236;2023-03-01T08:02:31;0.30;99.90
34768;DHT22;21755;43.608;1.236;2023-03-01T08:04:57;0.30;99.90
34768;DHT22;21755;43.608;1.236;2023-03-01T08:07:23;0.40;99.90
34768;DHT22;21755;43.608;1.236;2023-03-01T08:09:49;0.50;99.90
34768;DHT22;21755;43.608;1.236;2023-03-01T08:12:14;0.60;99.90
34768;DHT22;21755;43.608;1.236;2023-03-01T08:14:42;0.70;99.90
34768;DHT22;21755;43.608;1.236;2023-03-01T08:17:08;0.80;99.90
34768;DHT22;21755;43.608;1.236;2023-03-01T08:19:34;0.90;99.90
34768;DHT22;21755;43.608;1.236;2023-03-01T08:22:03;1.00;99.90
34768;DHT22;21755;43.608;1.236;2023-03-01T08:24:29;1.20;99.90
34768;DHT22;21755;43.608;1.236;2023-03-01T08:26:55;1.30;99.90
34768;DHT22;21755;43.608;1.236;2023-03-01T08:29:21;1.40;99.90
34768;DHT22;21755;43.608;1.236;2023-03-01T08:31:48;1.50;99.90
34768;DHT22;21755;43.608;1.236;2023-03-01T08:34:16;1.70;99.90
34768;DHT22;21755;43.608;1.236;2023-03-01T08:36:44;1.80;99.90
34768;DHT22;21755;43.608;1.236;2023-03-01T08:39:12;1.90;99.90
34768;DHT22;21755;43.608;1.236;2023-03-01T08:41:39;2.00;99.90
34768;DHT22;21755;43.608;1.236;2023-03-01T08:44:06;2.10;99.90
34768;DHT22;21755;43.608;1.236;2023-03-01T08:46:37;2.10;99.90
34768;DHT22;21755;43.608;1.236;2023-03-01T08:49:09;2.20;99.90
34768;DHT22;21755;43.608;1.236;2023-03-01T08:51:35;2.30;99.90
34768;DHT22;21755;43.608;1.236;2023-03-01T08:54:05;2.30;99.90
34768;DHT22;21755;43.608;1.236;2023-03-01T08:56:32;2.40;99.90
34768;DHT22;21755;43.608;1.236;2023-03-01T08:58:58;2.40;99.90
34768;DHT22;21755;43.608;1.236;2023-03-01T09:01:24;2.40;99.90
34768;DHT22;21755;43.608;1.236;2023-03-01T09:03:50;2.60;99.90
34768;DHT22;21755;43.608;1.236;2023-03-01T09:06:16;2.70;99.90
34768;DHT22;21755;43.608;1.236;2023-03-01T09:08:44;2.90;99.90
34768;DHT22;21755;43.608;1.236;2023-03-01T09:11:12;2.90;99.90
34768;DHT22;21755;43.608;1.236;2023-03-01T09:13:39;3.00;99.90
34768;DHT22;21755;43.608;1.236;2023-03-01T09:16:07;3.00;99.90
34768;DHT22;21755;43.608;1.236;2023-03-01T09:18:33;3.00;99.90
34768;DHT22;21755;43.608;1.236;2023-03-01T09:21:06;3.10;99.90
34768;DHT22;21755;43.608;1.236;2023-03-01T09:23:37;3.10;99.90
34768;DHT22;21755;43.608;1.236;2023-03-01T09:26:05;3.10;99.90
34768;DHT22;21755;43.608;1.236;2023-03-01T09:28:31;3.20;99.90
34768;DHT22;21755;43.608;1.236;2023-03-01T09:30:58;3.20;99.90
34768;DHT22;21755;43.608;1.236;2023-03-01T09:33:25;3.30;99.90
34768;DHT22;21755;43.608;1.236;2023-03-01T09:35:59;3.30;99.90
34768;DHT22;21755;43.608;1.236;2023-03-01T09:38:26;3.40;99.90
34768;DHT22;21755;43.608;1.236;2023-03-01T09:40:53;3.30;99.90
34768;DHT22;21755;43.608;1.236;2023-03-01T09:43:57;3.40;99.90
34768;DHT22;21755;43.608;1.236;2023-03-01T09:46:21;3.50;99.90
34768;DHT22;21755;43.608;1.236;2023-03-01T09:49:33;3.60;99.90
34768;DHT22;21755;43.608;1.236;2023-03-01T09:52:21;3.50;99.90
34768;DHT22;21755;43.608;1.236;2023-03-01T09:54:54;3.80;99.90
34768;DHT22;21755;43.608;1.236;2023-03-01T09:57:50;3.90;99.90
34768;DHT22;21755;43.608;1.236;2023-03-01T10:00:41;3.90;99.90
34768;DHT22;21755;43.608;1.236;2023-03-01T10:03:28;3.80;99.90
34768;DHT22;21755;43.608;1.236;2023-03-01T10:06:19;3.70;99.70
34768;DHT22;21755;43.608;1.236;2023-03-01T10:08:57;4.00;99.70
34768;DHT22;21755;43.608;1.236;2023-03-01T10:11:28;4.00;99.90
34768;DHT22;21755;43.608;1.236;2023-03-01T10:16:57;4.10;99.90
34768;DHT22;21755;43.608;1.236;2023-03-01T10:19:34;4.00;99.80
34768;DHT22;21755;43.608;1.236;2023-03-01T10:24:36;4.30;99.90
34768;DHT22;21755;43.608;1.236;2023-03-01T10:27:24;4.40;99.90
34768;DHT22;21755;43.608;1.236;2023-03-01T10:30:56;4.30;99.90
34768;DHT22;21755;43.608;1.236;2023-03-01T10:33:17;4.30;99.90
34768;DHT22;21755;43.608;1.236;2023-03-01T10:35:45;4.40;99.90
34768;DHT22;21755;43.608;1.236;2023-03-01T10:38:13;4.60;99.90
34768;DHT22;21755;43.608;1.236;2023-03-01T10:40:55;4.60;99.90
34768;DHT22;21755;43.608;1.236;2023-03-01T10:43:27;4.50;99.90
34768;DHT22;21755;43.608;1.236;2023-03-01T10:45:55;4.60;99.90
34768;DHT22;21755;43.608;1.236;2023-03-01T10:48:23;4.70;98.40
34768;DHT22;21755;43.608;1.236;2023-03-01T10:53:38;4.70;98.00
34768;DHT22;21755;43.608;1.236;2023-03-01T10:56:10;4.60;97.10
34768;DHT22;21755;43.608;1.236;2023-03-01T10:58:56;4.70;98.80
34768;DHT22;21755;43.608;1.236;2023-03-01T11:06:38;5.00;97.60
34768;DHT22;21755;43.608;1.236;2023-03-01T11:09:14;5.20;97.90
34768;DHT22;21755;43.608;1.236;2023-03-01T11:11:41;5.20;96.80
34768;DHT22;21755;43.608;1.236;2023-03-01T11:14:20;5.20;96.70
34768;DHT22;21755;43.608;1.236;2023-03-01T11:16:57;5.20;97.20
34768;DHT22;21755;43.608;1.236;2023-03-01T11:19:24;5.40;97.40
34768;DHT22;21755;43.608;1.236;2023-03-01T11:21:52;5.60;97.40
34768;DHT22;21755;43.608;1.236;2023-03-01T11:24:19;5.80;99.10
34768;DHT22;21755;43.608;1.236;2023-03-01T11:26:53;5.60;96.70
34768;DHT22;21755;43.608;1.236;2023-03-01T11:29:41;5.10;96.50
34768;DHT22;21755;43.608;1.236;2023-03-01T11:32:11;5.40;98.10
34768;DHT22;21755;43.608;1.236;2023-03-01T11:34:40;5.70;98.60
34768;DHT22;21755;43.608;1.236;2023-03-01T11:37:35;5.80;97.00
34768;DHT22;21755;43.608;1.236;2023-03-01T11:45:11;6.00;95.80
34768;DHT22;21755;43.608;1.236;2023-03-01T11:48:15;5.90;97.40
34768;DHT22;21755;43.608;1.236;2023-03-01T11:50:42;5.90;96.30
34768;DHT22;21755;43.608;1.236;2023-03-01T11:56:21;5.80;95.90
34768;DHT22;21755;43.608;1.236;2023-03-01T11:59:10;5.80;96.50
34768;DHT22;21755;43.608;1.236;2023-03-01T12:08:11;6.10;95.90
34768;DHT22;21755;43.608;1.236;2023-03-01T12:34:28;5.70;95.00
34768;DHT22;21755;43.608;1.236;2023-03-01T12:45:57;6.60;94.70
34768;DHT22;21755;43.608;1.236;2023-03-01T12:51:10;6.50;95.10
34768;DHT22;21755;43.608;1.236;2023-03-01T12:53:44;6.50;94.50
34768;DHT22;21755;43.608;1.236;2023-03-01T12:56:17;6.40;94.10
34768;DHT22;21755;43.608;1.236;2023-03-01T13:01:36;6.30;94.20
34768;DHT22;21755;43.608;1.236;2023-03-01T13:15:35;6.40;94.30
34768;DHT22;21755;43.608;1.236;2023-03-01T13:26:04;6.40;93.80
34768;DHT22;21755;43.608;1.236;2023-03-01T13:34:03;6.60;95.30
34768;DHT22;21755;43.608;1.236;2023-03-01T13:39:31;6.70;94.80
34768;DHT22;21755;43.608;1.236;2023-03-01T13:42:37;6.60;94.20
34768;DHT22;21755;43.608;1.236;2023-03-01T13:45:31;6.70;94.50
34768;DHT22;21755;43.608;1.236;2023-03-01T13:48:03;6.70;93.70
34768;DHT22;21755;43.608;1.236;2023-03-01T13:50:36;6.80;94.40
34768;DHT22;21755;43.608;1.236;2023-03-01T13:53:06;6.60;93.60
34768;DHT22;21755;43.608;1.236;2023-03-01T13:55:42;6.70;95.30
34768;DHT22;21755;43.608;1.236;2023-03-01T13:58:28;6.90;94.30
34768;DHT22;21755;43.608;1.236;2023-03-01T14:01:03;6.90;94.80
34768;DHT22;21755;43.608;1.236;2023-03-01T14:03:31;7.00;96.30
34768;DHT22;21755;43.608;1.236;2023-03-01T14:06:03;6.90;94.80
34768;DHT22;21755;43.608;1.236;2023-03-01T14:08:32;6.80;94.00
34768;DHT22;21755;43.608;1.236;2023-03-01T14:11:26;6.70;93.60
34768;DHT22;21755;43.608;1.236;2023-03-01T14:16:53;6.80;93.90
34768;DHT22;21755;43.608;1.236;2023-03-01T14:19:25;6.80;94.90
34768;DHT22;21755;43.608;1.236;2023-03-01T14:22:13;6.90;94.70
34768;DHT22;21755;43.608;1.236;2023-03-01T14:24:48;6.90;94.20
34768;DHT22;21755;43.608;1.236;2023-03-01T14:27:15;7.10;94.00
34768;DHT22;21755;43.608;1.236;2023-03-01T14:29:42;7.00;94.80
34768;DHT22;21755;43.608;1.236;2023-03-01T14:32:28;7.10;94.20
34768;DHT22;21755;43.608;1.236;2023-03-01T14:34:56;6.90;93.10
34768;DHT22;21755;43.608;1.236;2023-03-01T14:37:26;6.90;93.60
34768;DHT22;21755;43.608;1.236;2023-03-01T14:39:54;6.90;93.50
34768;DHT22;21755;43.608;1.236;2023-03-01T14:42:22;7.10;94.20
34768;DHT22;21755;43.608;1.236;2023-03-01T14:44:50;7.10;94.90
34768;DHT22;21755;43.608;1.236;2023-03-01T14:47:28;7.10;94.30
34768;DHT22;21755;43.608;1.236;2023-03-01T14:50:01;7.20;94.60
34768;DHT22;21755;43.608;1.236;2023-03-01T14:52:34;7.20;94.20
34768;DHT22;21755;43.608;1.236;2023-03-01T14:55:04;7.10;94.10
34768;DHT22;21755;43.608;1.236;2023-03-01T14:57:30;7.00;93.20
34768;DHT22;21755;43.608;1.236;2023-03-01T15:00:02;6.90;93.60
34768;DHT22;21755;43.608;1.236;2023-03-01T15:02:31;6.90;93.70
34768;DHT22;21755;43.608;1.236;2023-03-01T15:05:01;7.20;95.00
34768;DHT22;21755;43.608;1.236;2023-03-01T15:07:33;7.20;94.00
34768;DHT22;21755;43.608;1.236;2023-03-01T15:10:00;7.20;94.10
34768;DHT22;21755;43.608;1.236;2023-03-01T15:12:38;7.30;94.10
34768;DHT22;21755;43.608;1.236;2023-03-01T15:15:30;7.30;93.90
34768;DHT22;21755;43.608;1.236;2023-03-01T15:17:59;7.20;93.30
34768;DHT22;21755;43.608;1.236;2023-03-01T15:20:27;7.30;94.00
34768;DHT22;21755;43.608;1.236;2023-03-01T15:22:56;7.30;94.10
34768;DHT22;21755;43.608;1.236;2023-03-01T15:25:27;7.10;92.90
34768;DHT22;21755;43.608;1.236;2023-03-01T15:27:55;7.00;93.80
34768;DHT22;21755;43.608;1.236;2023-03-01T15:30:25;6.90;93.70
34768;DHT22;21755;43.608;1.236;2023-03-01T15:35:50;7.00;94.20
34768;DHT22;21755;43.608;1.236;2023-03-01T15:38:33;7.00;94.40
34768;DHT22;21755;43.608;1.236;2023-03-01T15:41:05;7.00;94.10
34768;DHT22;21755;43.608;1.236;2023-03-01T15:43:43;6.90;93.70
34768;DHT22;21755;43.608;1.236;2023-03-01T15:46:19;7.00;93.90
34768;DHT22;21755;43.608;1.236;2023-03-01T15:48:50;7.00;93.90
34768;DHT22;21755;43.608;1.236;2023-03-01T15:51:19;7.10;94.40
34768;DHT22;21755;43.608;1.236;2023-03-01T15:53:51;7.00;94.00
34768;DHT22;21755;43.608;1.236;2023-03-01T15:56:18;7.00;94.60
34768;DHT22;21755;43.608;1.236;2023-03-01T15:58:44;7.00;94.30
34768;DHT22;21755;43.608;1.236;2023-03-01T16:01:15;6.90;94.00
34768;DHT22;21755;43.608;1.236;2023-03-01T16:03:42;6.90;94.60
34768;DHT22;21755;43.608;1.236;2023-03-01T16:06:09;6.90;94.20
34768;DHT22;21755;43.608;1.236;2023-03-01T16:08:39;6.90;94.40
34768;DHT22;21755;43.608;1.236;2023-03-01T16:11:14;6.90;94.30
34768;DHT22;21755;43.608;1.236;2023-03-01T16:13:41;6.80;94.80
34768;DHT22;21755;43.608;1.236;2023-03-01T16:16:09;6.80;94.50
34768;DHT22;21755;43.608;1.236;2023-03-01T16:18:38;6.70;94.20
34768;DHT22;21755;43.608;1.236;2023-03-01T16:21:04;6.60;94.00
34768;DHT22;21755;43.608;1.236;2023-03-01T16:23:31;6.60;94.50
34768;DHT22;21755;43.608;1.236;2023-03-01T16:26:00;6.60;94.70
34768;DHT22;21755;43.608;1.236;2023-03-01T16:28:26;6.70;94.90
34768;DHT22;21755;43.608;1.236;2023-03-01T16:30:52;6.60;94.60
34768;DHT22;21755;43.608;1.236;2023-03-01T16:33:18;6.50;94.70
34768;DHT22;21755;43.608;1.236;2023-03-01T16:35:44;6.40;94.50
34768;DHT22;21755;43.608;1.236;2023-03-01T16:38:10;6.50;95.10
34768;DHT22;21755;43.608;1.236;2023-03-01T16:40:36;6.40;94.90
34768;DHT22;21755;43.608;1.236;2023-03-01T16:43:02;6.40;95.30
34768;DHT22;21755;43.608;1.236;2023-03-01T16:45:33;6.40;94.80
34768;DHT22;21755;43.608;1.236;2023-03-01T16:48:01;6.40;95.10
34768;DHT22;21755;43.608;1.236;2023-03-01T16:52:57;6.40;95.50
34768;DHT22;21755;43.608;1.236;2023-03-01T16:55:23;6.30;95.10
34768;DHT22;21755;43.608;1.236;2023-03-01T16:57:49;6.20;95.80
34768;DHT22;21755;43.608;1.236;2023-03-01T17:00:16;6.20;95.50
34768;DHT22;21755;43.608;1.236;2023-03-01T17:02:43;6.10;95.80
34768;DHT22;21755;43.608;1.236;2023-03-01T17:05:09;6.10;96.10
34768;DHT22;21755;43.608;1.236;2023-03-01T17:07:37;6.00;96.20
34768;DHT22;21755;43.608;1.236;2023-03-01T17:10:05;6.00;96.40
34768;DHT22;21755;43.608;1.236;2023-03-01T17:12:33;5.90;96.10
34768;DHT22;21755;43.608;1.236;2023-03-01T17:14:59;5.80;96.20
34768;DHT22;21755;43.608;1.236;2023-03-01T17:17:26;5.80;96.50
34768;DHT22;21755;43.608;1.236;2023-03-01T17:19:52;5.70;96.50
34768;DHT22;21755;43.608;1.236;2023-03-01T17:22:18;5.70;97.10
34768;DHT22;21755;43.608;1.236;2023-03-01T17:24:44;5.60;97.20
34768;DHT22;21755;43.608;1.236;2023-03-01T17:27:12;5.60;97.40
34768;DHT22;21755;43.608;1.236;2023-03-01T17:29:39;5.50;97.30
34768;DHT22;21755;43.608;1.236;2023-03-01T17:32:05;5.40;97.70
34768;DHT22;21755;43.608;1.236;2023-03-01T17:34:33;5.40;97.70
34768;DHT22;21755;43.608;1.236;2023-03-01T17:36:59;5.30;98.00
34768;DHT22;21755;43.608;1.236;2023-03-01T17:39:25;5.20;98.20
34768;DHT22;21755;43.608;1.236;2023-03-01T17:41:55;5.20;98.20
34768;DHT22;21755;43.608;1.236;2023-03-01T17:44:22;5.10;98.40
34768;DHT22;21755;43.608;1.236;2023-03-01T17:46:48;5.10;98.70
34768;DHT22;21755;43.608;1.236;2023-03-01T17:49:14;5.00;98.80
34768;DHT22;21755;43.608;1.236;2023-03-01T17:51:41;4.90;99.20
34768;DHT22;21755;43.608;1.236;2023-03-01T17:54:09;4.90;99.90